sensor_id;sensor_type;location;lat;lon;timestamp;temperature;humidity
15274;DHT22;7738;49.532;11.156;2023-11-21T00:02:02;5.70;99.90
15274;DHT22;7738;49.532;11.156;2023-11-21T00:04:32;5.60;99.90
15274;DHT22;7738;49.532;11.156;2023-11-21T00:07:02;5.70;99.90
15274;DHT22;7738;49.532;11.156;2023-11-21T00:09:33;6.10;99.90
15274;DHT22;7738;49.532;11.156;2023-11-21T00:12:04;5.70;99.90
15274;DHT22;7738;49.532;11.156;2023-11-21T00:14:39;5.70;99.90
15274;DHT22;7738;49.532;11.156;2023-11-21T00:17:10;5.70;99.90
15274;DHT22;7738;49.532;11.156;2023-11-21T00:19:40;5.70;99.90
15274;DHT22;7738;49.532;11.156;2023-11-21T00:22:10;5.70;99.90
15274;DHT22;7738;49.532;11.156;2023-11-21T00:24:40;5.70;99.90
15274;DHT22;7738;49.532;11.156;2023-11-21T00:27:11;5.70;99.90
15274;DHT22;7738;49.532;11.156;2023-11-21T00:29:44;5.70;99.90
15274;DHT22;7738;49.532;11.156;2023-11-21T00:32:14;5.60;99.90
15274;DHT22;7738;49.532;11.156;2023-11-21T00:34:45;5.60;99.90
15274;DHT22;7738;49.532;11.156;2023-11-21T00:37:15;5.60;99.90
15274;DHT22;7738;49.532;11.156;2023-11-21T00:39:45;5.60;99.90
15274;DHT22;7738;49.532;11.156;2023-11-21T00:42:15;5.60;99.90
15274;DHT22;7738;49.532;11.156;2023-11-21T00:44:48;5.60;99.90
15274;DHT22;7738;49.532;11.156;2023-11-21T00:47:18;5.60;99.90
15274;DHT22;7738;49.532;11.156;2023-11-21T00:52:20;5.60;99.90
15274;DHT22;7738;49.532;11.156;2023-11-21T00:54:51;5.60;99.90
15274;DHT22;7738;49.532;11.156;2023-11-21T00:57:21;5.60;99.90
15274;DHT22;7738;49.532;11.156;2023-11-21T00:59:54;5.60;99.90
15274;DHT22;7738;49.532;11.156;2023-11-21T01:02:25;5.60;99.90
15274;DHT22;7738;49.532;11.156;2023-11-21T01:04:56;5.60;99.90
15274;DHT22;7738;49.532;11.156;2023-11-21T01:07:26;5.70;99.90
15274;DHT22;7738;49.532;11.156;2023-11-21T01:12:27;5.70;99.90
15274;DHT22;7738;49.532;11.156;2023-11-21T01:15:00;5.60;99.90
15274;DHT22;7738;49.532;11.156;2023-11-21T01:20:01;5.70;99.90
15274;DHT22;7738;49.532;11.156;2023-11-21T01:22:34;7.00;99.90
15274;DHT22;7738;49.532;11.156;2023-11-21T01:25:05;5.70;99.90
15274;DHT22;7738;49.532;11.156;2023-11-21T01:27:35;5.60;99.90
15274;DHT22;7738;49.532;11.156;2023-11-21T01:30:09;5.70;99.90
15274;DHT22;7738;49.532;11.156;2023-11-21T01:32:40;5.60;99.90
15274;DHT22;7738;49.532;11.156;2023-11-21T01:35:12;5.60;99.90
15274;DHT22;7738;49.532;11.156;2023-11-21T01:37:42;5.60;99.90
15274;DHT22;7738;49.532;11.156;2023-11-21T01:40:13;5.60;99.90
15274;DHT22;7738;49.532;11.156;2023-11-21T01:42:43;5.60;99.90
15274;DHT22;7738;49.532;11.156;2023-11-21T01:45:17;5.60;99.90
15274;DHT22;7738;49.532;11.156;2023-11-21T01:47:47;5.60;99.90
15274;DHT22;7738;49.532;11.156;2023-11-21T01:50:20;5.60;99.90
15274;DHT22;7738;49.532;11.156;2023-11-21T01:52:50;5.60;99.90
15274;DHT22;7738;49.532;11.156;2023-11-21T01:55:22;5.60;99.90
15274;DHT22;7738;49.532;11.156;2023-11-21T01:57:56;5.60;99.90
15274;DHT22;7738;49.532;11.156;2023-11-21T02:00:29;5.60;99.90
15274;DHT22;7738;49.532;11.156;2023-11-21T02:03:01;5.60;99.90
15274;DHT22;7738;49.532;11.156;2023-11-21T02:05:31;5.70;99.90
15274;DHT22;7738;49.532;11.156;2023-11-21T02:08:02;5.60;99.90
15274;DHT22;7738;49.532;11.156;2023-11-21T02:10:33;5.60;99.90
15274;DHT22;7738;49.532;11.156;2023-11-21T02:13:04;5.60;99.90
15274;DHT22;7738;49.532;11.156;2023-11-21T02:15:37;5.60;99.90
15274;DHT22;7738;49.532;11.156;2023-11-21T02:18:08;5.60;99.90
15274;DHT22;7738;49.532;11.156;2023-11-21T02:20:39;5.60;99.90
15274;DHT22;7738;49.532;11.156;2023-11-21T02:23:13;5.60;99.90
15274;DHT22;7738;49.532;11.156;2023-11-21T02:25:43;5.60;99.90
15274;DHT22;7738;49.532;11.156;2023-11-21T02:28:16;5.60;99.90
15274;DHT22;7738;49.532;11.156;2023-11-21T02:30:53;5.60;99.90
15274;DHT22;7738;49.532;11.156;2023-11-21T02:33:26;5.60;99.90
15274;DHT22;7738;49.532;11.156;2023-11-21T02:35:56;5.60;99.90
15274;DHT22;7738;49.532;11.156;2023-11-21T02:38:29;5.60;99.90
15274;DHT22;7738;49.532;11.156;2023-11-21T02:41:00;5.60;99.90
15274;DHT22;7738;49.532;11.156;2023-11-21T02:43:32;5.60;99.90
15274;DHT22;7738;49.532;11.156;2023-11-21T02:46:02;5.60;99.90
15274;DHT22;7738;49.532;11.156;2023-11-21T02:48:32;5.70;99.90
15274;DHT22;7738;49.532;11.156;2023-11-21T02:51:03;5.70;99.90
15274;DHT22;7738;49.532;11.156;2023-11-21T02:53:36;5.70;99.90
15274;DHT22;7738;49.532;11.156;2023-11-21T02:56:08;5.60;99.90
15274;DHT22;7738;49.532;11.156;2023-11-21T02:58:41;5.70;99.90
15274;DHT22;7738;49.532;11.156;2023-11-21T03:01:12;5.70;99.90
15274;DHT22;7738;49.532;11.156;2023-11-21T03:03:42;5.60;99.90
15274;DHT22;7738;49.532;11.156;2023-11-21T03:06:13;5.60;99.90
15274;DHT22;7738;49.532;11.156;2023-11-21T03:08:46;5.60;99.90
15274;DHT22;7738;49.532;11.156;2023-11-21T03:11:17;5.60;99.90
15274;DHT22;7738;49.532;11.156;2023-11-21T03:13:47;5.60;99.90
15274;DHT22;7738;49.532;11.156;2023-11-21T03:16:18;5.60;99.90
15274;DHT22;7738;49.532;11.156;2023-11-21T03:18:49;5.50;99.90
15274;DHT22;7738;49.532;11.156;2023-11-21T03:21:20;5.50;99.90
15274;DHT22;7738;49.532;11.156;2023-11-21T03:23:53;5.50;99.90
15274;DHT22;7738;49.532;11.156;2023-11-21T03:26:23;5.50;99.90
15274;DHT22;7738;49.532;11.156;2023-11-21T03:28:53;5.50;99.90
15274;DHT22;7738;49.532;11.156;2023-11-21T03:31:23;5.60;99.90
15274;DHT22;7738;49.532;11.156;2023-11-21T03:33:54;5.60;99.90
15274;DHT22;7738;49.532;11.156;2023-11-21T03:36:24;5.50;99.90
15274;DHT22;7738;49.532;11.156;2023-11-21T03:38:57;5.50;99.90
15274;DHT22;7738;49.532;11.156;2023-11-21T03:41:27;5.60;99.90
15274;DHT22;7738;49.532;11.156;2023-11-21T03:43:58;5.60;99.90
15274;DHT22;7738;49.532;11.156;2023-11-21T03:46:28;5.50;99.90
15274;DHT22;7738;49.532;11.156;2023-11-21T03:48:58;5.50;99.90
15274;DHT22;7738;49.532;11.156;2023-11-21T03:51:28;5.60;99.90
15274;DHT22;7738;49.532;11.156;2023-11-21T03:54:01;5.50;99.90
15274;DHT22;7738;49.532;11.156;2023-11-21T03:56:31;5.50;99.90
15274;DHT22;7738;49.532;11.156;2023-11-21T03:59:01;5.50;99.90
15274;DHT22;7738;49.532;11.156;2023-11-21T04:01:32;5.60;99.90
15274;DHT22;7738;49.532;11.156;2023-11-21T04:04:02;5.60;99.90
15274;DHT22;7738;49.532;11.156;2023-11-21T04:06:32;5.60;99.90
15274;DHT22;7738;49.532;11.156;2023-11-21T04:09:07;5.60;99.90
15274;DHT22;7738;49.532;11.156;2023-11-21T04:11:37;5.60;99.90
15274;DHT22;7738;49.532;11.156;2023-11-21T04:14:07;5.40;99.90
15274;DHT22;7738;49.532;11.156;2023-11-21T04:16:38;7.30;99.90
15274;DHT22;7738;49.532;11.156;2023-11-21T04:19:08;5.50;99.90
15274;DHT22;7738;49.532;11.156;2023-11-21T04:21:42;5.60;99.90
15274;DHT22;7738;49.532;11.156;2023-11-21T04:24:15;5.60;99.90
15274;DHT22;7738;49.532;11.156;2023-11-21T04:26:45;5.60;99.90
15274;DHT22;7738;49.532;11.156;2023-11-21T04:29:15;5.60;99.90
15274;DHT22;7738;49.532;11.156;2023-11-21T04:31:46;5.60;99.90
15274;DHT22;7738;49.532;11.156;2023-11-21T04:34:16;5.60;99.90
15274;DHT22;7738;49.532;11.156;2023-11-21T04:36:46;5.60;99.90
15274;DHT22;7738;49.532;11.156;2023-11-21T04:39:19;5.60;99.90
15274;DHT22;7738;49.532;11.156;2023-11-21T04:41:50;5.60;99.90
15274;DHT22;7738;49.532;11.156;2023-11-21T04:44:20;5.60;99.90
15274;DHT22;7738;49.532;11.156;2023-11-21T04:46:50;5.60;99.90
15274;DHT22;7738;49.532;11.156;2023-11-21T04:49:20;5.60;99.90
15274;DHT22;7738;49.532;11.156;2023-11-21T04:51:50;5.60;99.90
15274;DHT22;7738;49.532;11.156;2023-11-21T04:54:23;5.60;99.90
15274;DHT22;7738;49.532;11.156;2023-11-21T04:56:55;5.60;99.90
15274;DHT22;7738;49.532;11.156;2023-11-21T04:59:26;5.60;99.90
15274;DHT22;7738;49.532;11.156;2023-11-21T05:01:56;5.60;99.90
15274;DHT22;7738;49.532;11.156;2023-11-21T05:04:27;5.60;99.90
15274;DHT22;7738;49.532;11.156;2023-11-21T05:06:58;5.60;99.90
15274;DHT22;7738;49.532;11.156;2023-11-21T05:09:30;5.60;99.90
15274;DHT22;7738;49.532;11.156;2023-11-21T05:12:02;5.70;99.90
15274;DHT22;7738;49.532;11.156;2023-11-21T05:14:32;5.60;99.90
15274;DHT22;7738;49.532;11.156;2023-11-21T05:17:02;5.60;99.90
15274;DHT22;7738;49.532;11.156;2023-11-21T05:19:35;5.60;99.90
15274;DHT22;7738;49.532;11.156;2023-11-21T05:22:07;5.60;99.90
15274;DHT22;7738;49.532;11.156;2023-11-21T05:24:42;5.60;99.90
15274;DHT22;7738;49.532;11.156;2023-11-21T05:29:43;5.70;99.90
15274;DHT22;7738;49.532;11.156;2023-11-21T05:32:13;5.70;99.90
15274;DHT22;7738;49.532;11.156;2023-11-21T05:34:44;5.70;99.90
15274;DHT22;7738;49.532;11.156;2023-11-21T05:39:48;5.70;99.90
15274;DHT22;7738;49.532;11.156;2023-11-21T05:42:18;5.70;99.90
15274;DHT22;7738;49.532;11.156;2023-11-21T05:44:48;5.70;99.90
15274;DHT22;7738;49.532;11.156;2023-11-21T05:47:19;5.70;99.90
15274;DHT22;7738;49.532;11.156;2023-11-21T05:49:49;5.70;99.90
15274;DHT22;7738;49.532;11.156;2023-11-21T05:52:19;5.70;99.90
15274;DHT22;7738;49.532;11.156;2023-11-21T05:54:52;5.70;99.90
15274;DHT22;7738;49.532;11.156;2023-11-21T05:57:22;5.70;99.90
15274;DHT22;7738;49.532;11.156;2023-11-21T05:59:53;5.70;99.90
15274;DHT22;7738;49.532;11.156;2023-11-21T06:02:23;5.70;99.90
15274;DHT22;7738;49.532;11.156;2023-11-21T06:04:53;5.70;99.90
15274;DHT22;7738;49.532;11.156;2023-11-21T06:07:23;5.80;99.90
15274;DHT22;7738;49.532;11.156;2023-11-21T06:09:56;5.80;99.90
15274;DHT22;7738;49.532;11.156;2023-11-21T06:12:26;5.70;99.90
15274;DHT22;7738;49.532;11.156;2023-11-21T06:14:57;5.70;99.90
15274;DHT22;7738;49.532;11.156;2023-11-21T06:17:27;5.70;99.90
15274;DHT22;7738;49.532;11.156;2023-11-21T06:19:57;5.80;99.90
15274;DHT22;7738;49.532;11.156;2023-11-21T06:22:28;5.70;99.90
15274;DHT22;7738;49.532;11.156;2023-11-21T06:25:01;6.00;99.90
15274;DHT22;7738;49.532;11.156;2023-11-21T06:27:32;5.80;99.90
15274;DHT22;7738;49.532;11.156;2023-11-21T06:30:04;5.80;99.90
15274;DHT22;7738;49.532;11.156;2023-11-21T06:32:37;5.80;99.90
15274;DHT22;7738;49.532;11.156;2023-11-21T06:35:08;5.80;99.90
15274;DHT22;7738;49.532;11.156;2023-11-21T06:37:39;7.70;99.90
15274;DHT22;7738;49.532;11.156;2023-11-21T06:40:17;5.70;99.90
15274;DHT22;7738;49.532;11.156;2023-11-21T06:42:48;5.70;99.90
15274;DHT22;7738;49.532;11.156;2023-11-21T06:45:19;5.70;99.90
15274;DHT22;7738;49.532;11.156;2023-11-21T06:47:50;5.70;99.90
15274;DHT22;7738;49.532;11.156;2023-11-21T06:50:20;5.70;99.90
15274;DHT22;7738;49.532;11.156;2023-11-21T06:52:51;5.70;99.90
15274;DHT22;7738;49.532;11.156;2023-11-21T06:55:23;5.70;99.90
15274;DHT22;7738;49.532;11.156;2023-11-21T06:57:54;5.70;99.90
15274;DHT22;7738;49.532;11.156;2023-11-21T07:00:25;5.80;99.90
15274;DHT22;7738;49.532;11.156;2023-11-21T07:02:56;5.70;99.90
15274;DHT22;7738;49.532;11.156;2023-11-21T07:05:26;5.70;99.90
15274;DHT22;7738;49.532;11.156;2023-11-21T07:07:57;5.70;99.90
15274;DHT22;7738;49.532;11.156;2023-11-21T07:10:35;5.70;99.90
15274;DHT22;7738;49.532;11.156;2023-11-21T07:13:06;5.70;99.90
15274;DHT22;7738;49.532;11.156;2023-11-21T07:15:40;5.70;99.90
15274;DHT22;7738;49.532;11.156;2023-11-21T07:18:11;5.70;99.90
15274;DHT22;7738;49.532;11.156;2023-11-21T07:20:41;5.70;99.90
15274;DHT22;7738;49.532;11.156;2023-11-21T07:23:11;5.70;99.90
15274;DHT22;7738;49.532;11.156;2023-11-21T07:25:45;5.70;99.90
15274;DHT22;7738;49.532;11.156;2023-11-21T07:28:15;5.80;99.90
15274;DHT22;7738;49.532;11.156;2023-11-21T07:30:46;5.70;99.90
15274;DHT22;7738;49.532;11.156;2023-11-21T07:33:16;5.80;99.90
15274;DHT22;7738;49.532;11.156;2023-11-21T07:35:47;5.80;99.90
15274;DHT22;7738;49.532;11.156;2023-11-21T07:38:18;5.80;99.90
15274;DHT22;7738;49.532;11.156;2023-11-21T07:40:50;5.80;99.90
15274;DHT22;7738;49.532;11.156;2023-11-21T07:43:21;5.80;99.90
15274;DHT22;7738;49.532;11.156;2023-11-21T07:45:51;5.80;99.90
15274;DHT22;7738;49.532;11.156;2023-11-21T07:48:21;5.90;99.90
15274;DHT22;7738;49.532;11.156;2023-11-21T07:50:51;5.90;99.90
15274;DHT22;7738;49.532;11.156;2023-11-21T07:53:21;5.90;99.90
15274;DHT22;7738;49.532;11.156;2023-11-21T07:55:55;6.00;99.90
15274;DHT22;7738;49.532;11.156;2023-11-21T07:58:25;5.90;99.90
15274;DHT22;7738;49.532;11.156;2023-11-21T08:00:55;6.00;99.90
15274;DHT22;7738;49.532;11.156;2023-11-21T08:03:30;6.00;99.90
15274;DHT22;7738;49.532;11.156;2023-11-21T08:06:00;6.00;99.90
15274;DHT22;7738;49.532;11.156;2023-11-21T08:08:33;6.10;99.90
15274;DHT22;7738;49.532;11.156;2023-11-21T08:11:05;6.10;99.90
15274;DHT22;7738;49.532;11.156;2023-11-21T08:13:37;6.10;99.90
15274;DHT22;7738;49.532;11.156;2023-11-21T08:16:08;6.10;99.90
15274;DHT22;7738;49.532;11.156;2023-11-21T08:18:38;6.20;99.90
15274;DHT22;7738;49.532;11.156;2023-11-21T08:21:08;6.20;99.90
15274;DHT22;7738;49.532;11.156;2023-11-21T08:23:39;6.20;99.90
15274;DHT22;7738;49.532;11.156;2023-11-21T08:26:12;6.20;99.90
15274;DHT22;7738;49.532;11.156;2023-11-21T08:28:42;6.30;99.90
15274;DHT22;7738;49.532;11.156;2023-11-21T08:31:12;6.30;99.90
15274;DHT22;7738;49.532;11.156;2023-11-21T08:33:43;6.30;99.90
15274;DHT22;7738;49.532;11.156;2023-11-21T08:36:13;6.30;99.90
15274;DHT22;7738;49.532;11.156;2023-11-21T08:38:43;6.30;99.90
15274;DHT22;7738;49.532;11.156;2023-11-21T08:41:16;6.30;99.90
15274;DHT22;7738;49.532;11.156;2023-11-21T08:43:49;6.40;99.90
15274;DHT22;7738;49.532;11.156;2023-11-21T08:46:21;6.40;99.90
15274;DHT22;7738;49.532;11.156;2023-11-21T08:48:53;6.40;99.90
15274;DHT22;7738;49.532;11.156;2023-11-21T08:51:23;6.40;99.90
15274;DHT22;7738;49.532;11.156;2023-11-21T08:53:53;6.40;99.90
15274;DHT22;7738;49.532;11.156;2023-11-21T08:56:28;6.40;99.90
15274;DHT22;7738;49.532;11.156;2023-11-21T08:58:59;6.40;99.90
15274;DHT22;7738;49.532;11.156;2023-11-21T09:01:30;6.50;99.90
15274;DHT22;7738;49.532;11.156;2023-11-21T09:04:01;6.50;99.90
15274;DHT22;7738;49.532;11.156;2023-11-21T09:06:31;6.60;99.90
15274;DHT22;7738;49.532;11.156;2023-11-21T09:09:02;6.70;99.90
15274;DHT22;7738;49.532;11.156;2023-11-21T09:11:38;6.70;99.90
15274;DHT22;7738;49.532;11.156;2023-11-21T09:14:08;6.70;99.90
15274;DHT22;7738;49.532;11.156;2023-11-21T09:16:40;6.60;99.90
15274;DHT22;7738;49.532;11.156;2023-11-21T09:19:10;6.70;99.90
15274;DHT22;7738;49.532;11.156;2023-11-21T09:21:41;6.80;99.90
15274;DHT22;7738;49.532;11.156;2023-11-21T09:24:11;6.80;99.90
15274;DHT22;7738;49.532;11.156;2023-11-21T09:26:44;6.80;99.90
15274;DHT22;7738;49.532;11.156;2023-11-21T09:29:14;6.80;99.90
15274;DHT22;7738;49.532;11.156;2023-11-21T09:31:46;6.90;99.90
15274;DHT22;7738;49.532;11.156;2023-11-21T09:34:18;6.90;99.90
15274;DHT22;7738;49.532;11.156;2023-11-21T09:36:48;6.90;99.90
15274;DHT22;7738;49.532;11.156;2023-11-21T09:39:18;6.90;99.90
15274;DHT22;7738;49.532;11.156;2023-11-21T09:41:52;6.90;99.90
15274;DHT22;7738;49.532;11.156;2023-11-21T09:44:34;7.00;99.90
15274;DHT22;7738;49.532;11.156;2023-11-21T09:47:05;7.00;99.90
15274;DHT22;7738;49.532;11.156;2023-11-21T09:49:38;7.00;99.90
15274;DHT22;7738;49.532;11.156;2023-11-21T09:52:09;7.10;99.90
15274;DHT22;7738;49.532;11.156;2023-11-21T09:54:45;7.20;99.90
15274;DHT22;7738;49.532;11.156;2023-11-21T09:57:19;7.20;99.90
15274;DHT22;7738;49.532;11.156;2023-11-21T09:59:52;7.30;99.90
15274;DHT22;7738;49.532;11.156;2023-11-21T10:02:27;7.40;99.90
15274;DHT22;7738;49.532;11.156;2023-11-21T10:05:00;7.40;99.90
15274;DHT22;7738;49.532;11.156;2023-11-21T10:07:32;7.50;99.90
15274;DHT22;7738;49.532;11.156;2023-11-21T10:10:05;7.50;99.90
15274;DHT22;7738;49.532;11.156;2023-11-21T10:12:41;7.50;99.90
15274;DHT22;7738;49.532;11.156;2023-11-21T10:15:12;7.60;99.90
15274;DHT22;7738;49.532;11.156;2023-11-21T10:17:45;7.70;99.90
15274;DHT22;7738;49.532;11.156;2023-11-21T10:20:17;7.80;99.90
15274;DHT22;7738;49.532;11.156;2023-11-21T10:22:47;7.80;99.90
15274;DHT22;7738;49.532;11.156;2023-11-21T10:25:17;8.00;99.90
15274;DHT22;7738;49.532;11.156;2023-11-21T10:27:57;8.00;99.90
15274;DHT22;7738;49.532;11.156;2023-11-21T10:30:32;8.10;99.90
15274;DHT22;7738;49.532;11.156;2023-11-21T10:33:05;8.10;99.90
15274;DHT22;7738;49.532;11.156;2023-11-21T10:35:39;8.10;99.90
15274;DHT22;7738;49.532;11.156;2023-11-21T10:38:14;8.10;99.90
15274;DHT22;7738;49.532;11.156;2023-11-21T10:40:45;8.20;99.90
15274;DHT22;7738;49.532;11.156;2023-11-21T10:43:19;8.30;99.90
15274;DHT22;7738;49.532;11.156;2023-11-21T10:45:49;8.60;99.90
15274;DHT22;7738;49.532;11.156;2023-11-21T10:48:20;10.30;99.90
15274;DHT22;7738;49.532;11.156;2023-11-21T10:50:50;9.10;99.90
15274;DHT22;7738;49.532;11.156;2023-11-21T10:53:21;9.20;99.90
15274;DHT22;7738;49.532;11.156;2023-11-21T10:56:01;9.30;99.90
15274;DHT22;7738;49.532;11.156;2023-11-21T10:58:35;9.30;99.90
15274;DHT22;7738;49.532;11.156;2023-11-21T11:01:07;9.20;99.90
15274;DHT22;7738;49.532;11.156;2023-11-21T11:03:39;9.20;99.90
15274;DHT22;7738;49.532;11.156;2023-11-21T11:06:09;9.00;99.90
15274;DHT22;7738;49.532;11.156;2023-11-21T11:08:41;9.00;99.90
15274;DHT22;7738;49.532;11.156;2023-11-21T11:11:12;8.90;99.90
15274;DHT22;7738;49.532;11.156;2023-11-21T11:13:45;8.90;99.90
15274;DHT22;7738;49.532;11.156;2023-11-21T11:16:16;8.90;99.90
15274;DHT22;7738;49.532;11.156;2023-11-21T11:18:47;8.90;99.90
15274;DHT22;7738;49.532;11.156;2023-11-21T11:21:27;8.90;99.90
15274;DHT22;7738;49.532;11.156;2023-11-21T11:24:11;8.90;99.90
15274;DHT22;7738;49.532;11.156;2023-11-21T11:26:47;8.90;99.90
15274;DHT22;7738;49.532;11.156;2023-11-21T11:29:31;8.90;99.90
15274;DHT22;7738;49.532;11.156;2023-11-21T11:32:10;8.90;99.90
15274;DHT22;7738;49.532;11.156;2023-11-21T11:34:47;8.90;99.90
15274;DHT22;7738;49.532;11.156;2023-11-21T11:37:20;8.80;99.90
15274;DHT22;7738;49.532;11.156;2023-11-21T11:39:51;8.80;99.90
15274;DHT22;7738;49.532;11.156;2023-11-21T11:42:22;8.90;99.90
15274;DHT22;7738;49.532;11.156;2023-11-21T11:44:55;8.90;99.90
15274;DHT22;7738;49.532;11.156;2023-11-21T11:47:27;8.80;99.90
15274;DHT22;7738;49.532;11.156;2023-11-21T11:50:04;8.90;99.90
15274;DHT22;7738;49.532;11.156;2023-11-21T11:52:41;8.90;99.90
15274;DHT22;7738;49.532;11.156;2023-11-21T11:55:14;8.80;99.90
15274;DHT22;7738;49.532;11.156;2023-11-21T11:57:48;8.80;99.90
15274;DHT22;7738;49.532;11.156;2023-11-21T12:00:34;8.70;99.90
15274;DHT22;7738;49.532;11.156;2023-11-21T12:03:10;8.70;99.90
15274;DHT22;7738;49.532;11.156;2023-11-21T12:05:41;8.70;99.90
15274;DHT22;7738;49.532;11.156;2023-11-21T12:08:16;8.60;99.90
15274;DHT22;7738;49.532;11.156;2023-11-21T12:10:46;8.60;99.90
15274;DHT22;7738;49.532;11.156;2023-11-21T12:13:17;10.40;99.90
15274;DHT22;7738;49.532;11.156;2023-11-21T12:15:49;8.70;99.90
15274;DHT22;7738;49.532;11.156;2023-11-21T12:18:21;8.60;99.90
15274;DHT22;7738;49.532;11.156;2023-11-21T12:20:57;8.60;99.90
15274;DHT22;7738;49.532;11.156;2023-11-21T12:23:32;8.60;99.90
15274;DHT22;7738;49.532;11.156;2023-11-21T12:26:04;8.60;99.90
15274;DHT22;7738;49.532;11.156;2023-11-21T12:28:37;8.60;99.90
15274;DHT22;7738;49.532;11.156;2023-11-21T12:31:10;8.60;99.90
15274;DHT22;7738;49.532;11.156;2023-11-21T12:33:48;8.50;99.90
15274;DHT22;7738;49.532;11.156;2023-11-21T12:36:19;8.50;99.90
15274;DHT22;7738;49.532;11.156;2023-11-21T12:38:49;8.50;99.90
15274;DHT22;7738;49.532;11.156;2023-11-21T12:41:22;9.70;99.90
15274;DHT22;7738;49.532;11.156;2023-11-21T12:43:52;8.50;99.90
15274;DHT22;7738;49.532;11.156;2023-11-21T12:46:27;8.60;99.90
15274;DHT22;7738;49.532;11.156;2023-11-21T12:49:03;8.60;99.90
15274;DHT22;7738;49.532;11.156;2023-11-21T12:51:33;8.60;99.90
15274;DHT22;7738;49.532;11.156;2023-11-21T12:54:03;8.60;99.90
15274;DHT22;7738;49.532;11.156;2023-11-21T12:56:34;8.60;99.90
15274;DHT22;7738;49.532;11.156;2023-11-21T12:59:07;8.60;99.90
15274;DHT22;7738;49.532;11.156;2023-11-21T13:01:46;8.60;99.90
15274;DHT22;7738;49.532;11.156;2023-11-21T13:04:18;8.50;99.90
15274;DHT22;7738;49.532;11.156;2023-11-21T13:06:49;8.50;99.90
15274;DHT22;7738;49.532;11.156;2023-11-21T13:09:19;8.40;99.90
15274;DHT22;7738;49.532;11.156;2023-11-21T13:11:49;8.50;99.90
15274;DHT22;7738;49.532;11.156;2023-11-21T13:14:29;8.50;99.90
15274;DHT22;7738;49.532;11.156;2023-11-21T13:17:01;8.50;99.90
15274;DHT22;7738;49.532;11.156;2023-11-21T13:19:32;8.30;99.90
15274;DHT22;7738;49.532;11.156;2023-11-21T13:22:02;8.30;99.90
15274;DHT22;7738;49.532;11.156;2023-11-21T13:24:33;8.30;99.90
15274;DHT22;7738;49.532;11.156;2023-11-21T13:27:04;8.20;99.90
15274;DHT22;7738;49.532;11.156;2023-11-21T13:29:34;8.30;99.90
15274;DHT22;7738;49.532;11.156;2023-11-21T13:32:07;8.30;99.90
15274;DHT22;7738;49.532;11.156;2023-11-21T13:34:39;8.20;99.90
15274;DHT22;7738;49.532;11.156;2023-11-21T13:37:12;8.30;99.90
15274;DHT22;7738;49.532;11.156;2023-11-21T13:39:42;8.40;99.90
15274;DHT22;7738;49.532;11.156;2023-11-21T13:42:18;8.50;99.90
15274;DHT22;7738;49.532;11.156;2023-11-21T13:44:56;8.60;99.90
15274;DHT22;7738;49.532;11.156;2023-11-21T13:47:28;8.60;99.90
15274;DHT22;7738;49.532;11.156;2023-11-21T13:50:00;8.70;99.90
15274;DHT22;7738;49.532;11.156;2023-11-21T13:52:30;8.60;99.90
15274;DHT22;7738;49.532;11.156;2023-11-21T13:55:03;8.60;99.90
15274;DHT22;7738;49.532;11.156;2023-11-21T13:57:41;8.60;99.90
15274;DHT22;7738;49.532;11.156;2023-11-21T14:00:17;8.50;99.90
15274;DHT22;7738;49.532;11.156;2023-11-21T14:03:02;8.50;99.90
15274;DHT22;7738;49.532;11.156;2023-11-21T14:05:38;8.40;99.90
15274;DHT22;7738;49.532;11.156;2023-11-21T14:08:10;8.40;99.90
15274;DHT22;7738;49.532;11.156;2023-11-21T14:10:43;8.40;99.90
15274;DHT22;7738;49.532;11.156;2023-11-21T14:13:18;8.40;99.90
15274;DHT22;7738;49.532;11.156;2023-11-21T14:15:50;8.40;99.90
15274;DHT22;7738;49.532;11.156;2023-11-21T14:18:27;8.40;99.90
15274;DHT22;7738;49.532;11.156;2023-11-21T14:21:01;8.30;99.90
15274;DHT22;7738;49.532;11.156;2023-11-21T14:23:32;8.30;99.90
15274;DHT22;7738;49.532;11.156;2023-11-21T14:26:03;8.30;99.90
15274;DHT22;7738;49.532;11.156;2023-11-21T14:28:34;8.30;99.90
15274;DHT22;7738;49.532;11.156;2023-11-21T14:31:04;8.20;99.90
15274;DHT22;7738;49.532;11.156;2023-11-21T14:33:37;8.10;99.90
15274;DHT22;7738;49.532;11.156;2023-11-21T14:36:08;8.10;99.90
15274;DHT22;7738;49.532;11.156;2023-11-21T14:38:39;8.00;99.90
15274;DHT22;7738;49.532;11.156;2023-11-21T14:41:09;8.00;99.90
15274;DHT22;7738;49.532;11.156;2023-11-21T14:43:41;7.90;99.90
15274;DHT22;7738;49.532;11.156;2023-11-21T14:46:13;7.90;99.90
15274;DHT22;7738;49.532;11.156;2023-11-21T14:48:49;7.80;99.90
15274;DHT22;7738;49.532;11.156;2023-11-21T14:51:25;7.80;99.90
15274;DHT22;7738;49.532;11.156;2023-11-21T14:53:58;7.70;99.90
15274;DHT22;7738;49.532;11.156;2023-11-21T14:56:33;8.30;99.90
15274;DHT22;7738;49.532;11.156;2023-11-21T14:59:05;7.60;99.90
15274;DHT22;7738;49.532;11.156;2023-11-21T15:01:39;7.60;99.90
15274;DHT22;7738;49.532;11.156;2023-11-21T15:04:25;7.50;99.90
15274;DHT22;7738;49.532;11.156;2023-11-21T15:07:03;7.50;99.90
15274;DHT22;7738;49.532;11.156;2023-11-21T15:12:10;7.40;99.90
15274;DHT22;7738;49.532;11.156;2023-11-21T15:14:51;7.30;99.90
15274;DHT22;7738;49.532;11.156;2023-11-21T15:17:24;7.30;99.90
15274;DHT22;7738;49.532;11.156;2023-11-21T15:20:00;7.20;99.90
15274;DHT22;7738;49.532;11.156;2023-11-21T15:27:37;7.20;99.90
15274;DHT22;7738;49.532;11.156;2023-11-21T15:30:09;7.10;99.90
15274;DHT22;7738;49.532;11.156;2023-11-21T15:32:39;6.30;99.90
15274;DHT22;7738;49.532;11.156;2023-11-21T15:35:12;7.00;99.90
15274;DHT22;7738;49.532;11.156;2023-11-21T15:37:43;7.10;99.90
15274;DHT22;7738;49.532;11.156;2023-11-21T15:40:13;6.90;99.90
15274;DHT22;7738;49.532;11.156;2023-11-21T15:42:44;6.90;99.90
15274;DHT22;7738;49.532;11.156;2023-11-21T15:45:15;6.90;99.90
15274;DHT22;7738;49.532;11.156;2023-11-21T15:47:48;8.90;99.90
15274;DHT22;7738;49.532;11.156;2023-11-21T15:50:21;6.80;99.90
15274;DHT22;7738;49.532;11.156;2023-11-21T15:52:51;6.80;99.90
15274;DHT22;7738;49.532;11.156;2023-11-21T15:55:24;6.70;99.90
15274;DHT22;7738;49.532;11.156;2023-11-21T15:57:54;6.70;99.90
15274;DHT22;7738;49.532;11.156;2023-11-21T16:00:25;6.70;99.90
15274;DHT22;7738;49.532;11.156;2023-11-21T16:02:55;6.60;99.90
15274;DHT22;7738;49.532;11.156;2023-11-21T16:05:28;6.60;99.90
15274;DHT22;7738;49.532;11.156;2023-11-21T16:07:58;6.60;99.90
15274;DHT22;7738;49.532;11.156;2023-11-21T16:10:29;6.50;99.90
15274;DHT22;7738;49.532;11.156;2023-11-21T16:13:00;6.50;99.90
15274;DHT22;7738;49.532;11.156;2023-11-21T16:15:30;6.50;99.90
15274;DHT22;7738;49.532;11.156;2023-11-21T16:18:01;6.60;99.90
15274;DHT22;7738;49.532;11.156;2023-11-21T16:20:33;6.50;99.90
15274;DHT22;7738;49.532;11.156;2023-11-21T16:23:03;6.50;99.90
15274;DHT22;7738;49.532;11.156;2023-11-21T16:25:35;6.50;99.90
15274;DHT22;7738;49.532;11.156;2023-11-21T16:28:05;6.50;99.90
15274;DHT22;7738;49.532;11.156;2023-11-21T16:30:35;6.50;99.90
15274;DHT22;7738;49.532;11.156;2023-11-21T16:33:05;6.50;99.90
15274;DHT22;7738;49.532;11.156;2023-11-21T16:35:38;6.40;99.90